sensor_id;sensor_type;location;lat;lon;timestamp;P1;durP1;ratioP1;P2;durP2;ratioP2
14203;SDS011;7185;51.854;6.622;2022-12-29T00:01:39;2.38;;;1.50;;
14203;SDS011;7185;51.854;6.622;2022-12-29T00:04:11;3.22;;;1.52;;
14203;SDS011;7185;51.854;6.622;2022-12-29T00:06:44;1.98;;;1.33;;
14203;SDS011;7185;51.854;6.622;2022-12-29T00:09:16;3.72;;;1.40;;
14203;SDS011;7185;51.854;6.622;2022-12-29T00:11:49;2.15;;;1.27;;
14203;SDS011;7185;51.854;6.622;2022-12-29T00:14:21;2.45;;;1.58;;
14203;SDS011;7185;51.854;6.622;2022-12-29T00:17:09;2.88;;;1.88;;
14203;SDS011;7185;51.854;6.622;2022-12-29T00:19:41;2.53;;;1.60;;
14203;SDS011;7185;51.854;6.622;2022-12-29T00:22:30;4.38;;;1.50;;
14203;SDS011;7185;51.854;6.622;2022-12-29T00:25:20;3.35;;;1.50;;
14203;SDS011;7185;51.854;6.622;2022-12-29T00:28:10;2.47;;;1.40;;
14203;SDS011;7185;51.854;6.622;2022-12-29T00:30:59;5.38;;;2.13;;
14203;SDS011;7185;51.854;6.622;2022-12-29T00:33:48;2.38;;;1.60;;
14203;SDS011;7185;51.854;6.622;2022-12-29T00:36:38;2.80;;;1.55;;
14203;SDS011;7185;51.854;6.622;2022-12-29T00:39:14;3.65;;;1.75;;
14203;SDS011;7185;51.854;6.622;2022-12-29T00:42:07;4.47;;;1.98;;
14203;SDS011;7185;51.854;6.622;2022-12-29T00:45:04;2.88;;;1.60;;
14203;SDS011;7185;51.854;6.622;2022-12-29T00:47:36;3.45;;;1.67;;
14203;SDS011;7185;51.854;6.622;2022-12-29T00:50:08;3.80;;;1.42;;
14203;SDS011;7185;51.854;6.622;2022-12-29T00:52:44;2.25;;;1.35;;
14203;SDS011;7185;51.854;6.622;2022-12-29T00:55:16;2.33;;;1.30;;
14203;SDS011;7185;51.854;6.622;2022-12-29T00:57:48;2.83;;;1.45;;
14203;SDS011;7185;51.854;6.622;2022-12-29T01:00:21;2.63;;;1.60;;
14203;SDS011;7185;51.854;6.622;2022-12-29T01:02:52;2.85;;;1.85;;
14203;SDS011;7185;51.854;6.622;2022-12-29T01:05:24;3.30;;;2.30;;
14203;SDS011;7185;51.854;6.622;2022-12-29T01:07:56;3.35;;;2.53;;
14203;SDS011;7185;51.854;6.622;2022-12-29T01:10:27;4.18;;;2.80;;
14203;SDS011;7185;51.854;6.622;2022-12-29T01:13:03;3.58;;;2.45;;
14203;SDS011;7185;51.854;6.622;2022-12-29T01:15:36;3.83;;;2.58;;
14203;SDS011;7185;51.854;6.622;2022-12-29T01:18:07;4.13;;;2.47;;
14203;SDS011;7185;51.854;6.622;2022-12-29T01:20:39;4.25;;;2.65;;
14203;SDS011;7185;51.854;6.622;2022-12-29T01:23:10;4.00;;;2.40;;
14203;SDS011;7185;51.854;6.622;2022-12-29T01:25:42;3.28;;;2.30;;
14203;SDS011;7185;51.854;6.622;2022-12-29T01:28:14;3.70;;;2.42;;
14203;SDS011;7185;51.854;6.622;2022-12-29T01:30:47;3.58;;;2.38;;
14203;SDS011;7185;51.854;6.622;2022-12-29T01:33:18;4.13;;;2.10;;
14203;SDS011;7185;51.854;6.622;2022-12-29T01:35:50;3.58;;;2.20;;
14203;SDS011;7185;51.854;6.622;2022-12-29T01:38:21;4.72;;;2.15;;
14203;SDS011;7185;51.854;6.622;2022-12-29T01:40:53;3.28;;;2.20;;
14203;SDS011;7185;51.854;6.622;2022-12-29T01:43:37;3.50;;;2.00;;
14203;SDS011;7185;51.854;6.622;2022-12-29T01:46:22;2.70;;;2.00;;
14203;SDS011;7185;51.854;6.622;2022-12-29T01:48:58;2.88;;;1.85;;
14203;SDS011;7185;51.854;6.622;2022-12-29T01:51:37;3.20;;;1.80;;
14203;SDS011;7185;51.854;6.622;2022-12-29T01:54:11;3.25;;;2.25;;
14203;SDS011;7185;51.854;6.622;2022-12-29T01:56:47;3.33;;;1.73;;
14203;SDS011;7185;51.854;6.622;2022-12-29T01:59:20;4.22;;;1.95;;
14203;SDS011;7185;51.854;6.622;2022-12-29T02:01:57;2.78;;;1.60;;
14203;SDS011;7185;51.854;6.622;2022-12-29T02:04:29;3.33;;;1.40;;
14203;SDS011;7185;51.854;6.622;2022-12-29T02:07:04;2.78;;;1.77;;
14203;SDS011;7185;51.854;6.622;2022-12-29T02:09:38;6.68;;;1.50;;
14203;SDS011;7185;51.854;6.622;2022-12-29T02:12:11;2.40;;;1.42;;
14203;SDS011;7185;51.854;6.622;2022-12-29T02:14:43;2.40;;;1.42;;
14203;SDS011;7185;51.854;6.622;2022-12-29T02:17:18;3.83;;;1.38;;
14203;SDS011;7185;51.854;6.622;2022-12-29T02:23:30;2.90;;;1.50;;
14203;SDS011;7185;51.854;6.622;2022-12-29T02:26:29;1.73;;;1.08;;
14203;SDS011;7185;51.854;6.622;2022-12-29T02:32:23;1.90;;;1.20;;
14203;SDS011;7185;51.854;6.622;2022-12-29T02:35:05;2.38;;;1.33;;
14203;SDS011;7185;51.854;6.622;2022-12-29T02:37:42;2.70;;;1.10;;
14203;SDS011;7185;51.854;6.622;2022-12-29T02:40:22;2.20;;;1.27;;
14203;SDS011;7185;51.854;6.622;2022-12-29T02:42:59;4.05;;;1.10;;
14203;SDS011;7185;51.854;6.622;2022-12-29T02:45:36;2.83;;;1.30;;
14203;SDS011;7185;51.854;6.622;2022-12-29T02:48:16;1.88;;;0.90;;
14203;SDS011;7185;51.854;6.622;2022-12-29T02:50:53;1.90;;;0.77;;
14203;SDS011;7185;51.854;6.622;2022-12-29T02:53:29;6.82;;;1.05;;
14203;SDS011;7185;51.854;6.622;2022-12-29T02:56:29;3.72;;;1.10;;
14203;SDS011;7185;51.854;6.622;2022-12-29T02:59:00;1.95;;;0.85;;
14203;SDS011;7185;51.854;6.622;2022-12-29T03:01:35;2.00;;;0.80;;
14203;SDS011;7185;51.854;6.622;2022-12-29T03:04:39;3.42;;;1.10;;
14203;SDS011;7185;51.854;6.622;2022-12-29T03:07:20;1.58;;;0.70;;
14203;SDS011;7185;51.854;6.622;2022-12-29T03:10:01;3.05;;;1.02;;
14203;SDS011;7185;51.854;6.622;2022-12-29T03:12:40;1.05;;;0.77;;
14203;SDS011;7185;51.854;6.622;2022-12-29T03:15:35;1.92;;;0.80;;
14203;SDS011;7185;51.854;6.622;2022-12-29T03:18:34;1.92;;;0.90;;
14203;SDS011;7185;51.854;6.622;2022-12-29T03:21:14;3.42;;;1.15;;
14203;SDS011;7185;51.854;6.622;2022-12-29T03:23:50;2.08;;;1.00;;
14203;SDS011;7185;51.854;6.622;2022-12-29T03:26:22;3.33;;;0.90;;
14203;SDS011;7185;51.854;6.622;2022-12-29T03:28:54;2.45;;;0.80;;
14203;SDS011;7185;51.854;6.622;2022-12-29T03:31:27;1.92;;;0.98;;
14203;SDS011;7185;51.854;6.622;2022-12-29T03:33:59;3.72;;;0.80;;
14203;SDS011;7185;51.854;6.622;2022-12-29T03:36:33;1.80;;;0.93;;
14203;SDS011;7185;51.854;6.622;2022-12-29T03:39:10;2.40;;;0.85;;
14203;SDS011;7185;51.854;6.622;2022-12-29T03:41:43;7.50;;;1.00;;
14203;SDS011;7185;51.854;6.622;2022-12-29T03:44:16;3.03;;;0.90;;
14203;SDS011;7185;51.854;6.622;2022-12-29T03:46:48;3.10;;;0.90;;
14203;SDS011;7185;51.854;6.622;2022-12-29T03:49:21;2.80;;;1.00;;
14203;SDS011;7185;51.854;6.622;2022-12-29T03:51:54;2.00;;;1.00;;
14203;SDS011;7185;51.854;6.622;2022-12-29T03:54:25;2.97;;;1.00;;
14203;SDS011;7185;51.854;6.622;2022-12-29T03:56:57;2.25;;;0.70;;
14203;SDS011;7185;51.854;6.622;2022-12-29T03:59:29;2.95;;;0.85;;
14203;SDS011;7185;51.854;6.622;2022-12-29T04:02:01;2.92;;;0.90;;
14203;SDS011;7185;51.854;6.622;2022-12-29T04:04:32;3.00;;;0.90;;
14203;SDS011;7185;51.854;6.622;2022-12-29T04:07:05;2.75;;;1.10;;
14203;SDS011;7185;51.854;6.622;2022-12-29T04:09:37;3.08;;;0.82;;
14203;SDS011;7185;51.854;6.622;2022-12-29T04:12:08;4.15;;;1.00;;
14203;SDS011;7185;51.854;6.622;2022-12-29T04:14:40;2.10;;;1.02;;
14203;SDS011;7185;51.854;6.622;2022-12-29T04:17:11;1.40;;;0.73;;
14203;SDS011;7185;51.854;6.622;2022-12-29T04:19:45;4.03;;;1.55;;
14203;SDS011;7185;51.854;6.622;2022-12-29T04:22:18;2.97;;;0.85;;
14203;SDS011;7185;51.854;6.622;2022-12-29T04:24:50;1.73;;;0.90;;
14203;SDS011;7185;51.854;6.622;2022-12-29T04:27:21;3.63;;;0.90;;
14203;SDS011;7185;51.854;6.622;2022-12-29T04:29:53;1.98;;;0.80;;
14203;SDS011;7185;51.854;6.622;2022-12-29T04:32:24;2.63;;;0.80;;
14203;SDS011;7185;51.854;6.622;2022-12-29T04:34:56;2.88;;;0.90;;
14203;SDS011;7185;51.854;6.622;2022-12-29T04:37:29;2.10;;;0.85;;
14203;SDS011;7185;51.854;6.622;2022-12-29T04:40:00;3.17;;;0.90;;
14203;SDS011;7185;51.854;6.622;2022-12-29T04:42:32;2.63;;;0.80;;
14203;SDS011;7185;51.854;6.622;2022-12-29T04:45:04;3.28;;;1.00;;
14203;SDS011;7185;51.854;6.622;2022-12-29T04:47:36;2.22;;;0.55;;
14203;SDS011;7185;51.854;6.622;2022-12-29T04:50:08;2.15;;;0.70;;
14203;SDS011;7185;51.854;6.622;2022-12-29T04:52:41;4.53;;;1.30;;
14203;SDS011;7185;51.854;6.622;2022-12-29T04:55:13;2.65;;;0.75;;
14203;SDS011;7185;51.854;6.622;2022-12-29T04:57:45;2.20;;;0.75;;
14203;SDS011;7185;51.854;6.622;2022-12-29T05:00:17;2.67;;;1.55;;
14203;SDS011;7185;51.854;6.622;2022-12-29T05:02:49;2.75;;;0.68;;
14203;SDS011;7185;51.854;6.622;2022-12-29T05:05:21;4.75;;;0.95;;
14203;SDS011;7185;51.854;6.622;2022-12-29T05:07:54;3.42;;;0.95;;
14203;SDS011;7185;51.854;6.622;2022-12-29T05:10:25;2.95;;;0.60;;
14203;SDS011;7185;51.854;6.622;2022-12-29T05:12:57;3.80;;;0.95;;
14203;SDS011;7185;51.854;6.622;2022-12-29T05:15:31;3.47;;;0.60;;
14203;SDS011;7185;51.854;6.622;2022-12-29T05:18:02;4.15;;;0.85;;
14203;SDS011;7185;51.854;6.622;2022-12-29T05:20:34;3.85;;;0.77;;
14203;SDS011;7185;51.854;6.622;2022-12-29T05:23:07;2.78;;;0.60;;
14203;SDS011;7185;51.854;6.622;2022-12-29T05:25:39;2.85;;;0.80;;
14203;SDS011;7185;51.854;6.622;2022-12-29T05:28:10;1.60;;;0.50;;
14203;SDS011;7185;51.854;6.622;2022-12-29T05:30:43;3.45;;;0.88;;
14203;SDS011;7185;51.854;6.622;2022-12-29T05:33:15;3.17;;;0.80;;
14203;SDS011;7185;51.854;6.622;2022-12-29T05:35:46;6.72;;;0.95;;
14203;SDS011;7185;51.854;6.622;2022-12-29T05:38:19;4.65;;;0.75;;
14203;SDS011;7185;51.854;6.622;2022-12-29T05:40:51;6.03;;;0.98;;
14203;SDS011;7185;51.854;6.622;2022-12-29T05:43:23;5.28;;;1.00;;
14203;SDS011;7185;51.854;6.622;2022-12-29T05:45:54;6.03;;;0.90;;
14203;SDS011;7185;51.854;6.622;2022-12-29T05:48:27;4.38;;;0.88;;
14203;SDS011;7185;51.854;6.622;2022-12-29T05:50:58;2.53;;;0.80;;
14203;SDS011;7185;51.854;6.622;2022-12-29T05:53:31;5.18;;;1.10;;
14203;SDS011;7185;51.854;6.622;2022-12-29T05:56:03;3.40;;;0.80;;
14203;SDS011;7185;51.854;6.622;2022-12-29T05:58:35;4.72;;;1.10;;
14203;SDS011;7185;51.854;6.622;2022-12-29T06:01:06;4.75;;;1.10;;
14203;SDS011;7185;51.854;6.622;2022-12-29T06:03:38;5.00;;;0.93;;
14203;SDS011;7185;51.854;6.622;2022-12-29T06:06:10;4.28;;;0.90;;
14203;SDS011;7185;51.854;6.622;2022-12-29T06:08:43;4.85;;;0.82;;
14203;SDS011;7185;51.854;6.622;2022-12-29T06:11:14;3.92;;;0.77;;
14203;SDS011;7185;51.854;6.622;2022-12-29T06:13:46;4.35;;;1.08;;
14203;SDS011;7185;51.854;6.622;2022-12-29T06:16:18;8.32;;;1.20;;
14203;SDS011;7185;51.854;6.622;2022-12-29T06:18:49;4.50;;;0.90;;
14203;SDS011;7185;51.854;6.622;2022-12-29T06:21:21;3.75;;;1.23;;
14203;SDS011;7185;51.854;6.622;2022-12-29T06:23:54;4.13;;;1.30;;
14203;SDS011;7185;51.854;6.622;2022-12-29T06:26:26;2.72;;;0.77;;
14203;SDS011;7185;51.854;6.622;2022-12-29T06:28:57;5.72;;;1.10;;
14203;SDS011;7185;51.854;6.622;2022-12-29T06:31:29;6.50;;;1.00;;
14203;SDS011;7185;51.854;6.622;2022-12-29T06:34:01;4.25;;;1.05;;
14203;SDS011;7185;51.854;6.622;2022-12-29T06:36:33;5.10;;;1.83;;
14203;SDS011;7185;51.854;6.622;2022-12-29T06:39:06;6.88;;;1.27;;
14203;SDS011;7185;51.854;6.622;2022-12-29T06:41:37;4.55;;;1.02;;
14203;SDS011;7185;51.854;6.622;2022-12-29T06:44:09;3.60;;;1.10;;
14203;SDS011;7185;51.854;6.622;2022-12-29T06:46:41;5.85;;;1.10;;
14203;SDS011;7185;51.854;6.622;2022-12-29T06:49:12;4.65;;;1.13;;
14203;SDS011;7185;51.854;6.622;2022-12-29T06:51:44;2.80;;;0.88;;
14203;SDS011;7185;51.854;6.622;2022-12-29T06:54:17;4.88;;;1.08;;
14203;SDS011;7185;51.854;6.622;2022-12-29T06:56:49;5.15;;;1.40;;
14203;SDS011;7185;51.854;6.622;2022-12-29T06:59:20;10.40;;;1.70;;
14203;SDS011;7185;51.854;6.622;2022-12-29T07:01:52;6.65;;;1.42;;
14203;SDS011;7185;51.854;6.622;2022-12-29T07:04:23;3.10;;;1.20;;
14203;SDS011;7185;51.854;6.622;2022-12-29T07:06:55;4.53;;;1.00;;
14203;SDS011;7185;51.854;6.622;2022-12-29T07:09:28;3.75;;;0.80;;
14203;SDS011;7185;51.854;6.622;2022-12-29T07:11:59;3.17;;;0.98;;
14203;SDS011;7185;51.854;6.622;2022-12-29T07:14:31;4.90;;;1.35;;
14203;SDS011;7185;51.854;6.622;2022-12-29T07:17:03;3.15;;;1.00;;
14203;SDS011;7185;51.854;6.622;2022-12-29T07:19:35;5.65;;;1.25;;
14203;SDS011;7185;51.854;6.622;2022-12-29T07:22:07;3.97;;;0.85;;
14203;SDS011;7185;51.854;6.622;2022-12-29T07:24:41;5.32;;;1.02;;
14203;SDS011;7185;51.854;6.622;2022-12-29T07:27:13;7.57;;;1.10;;
14203;SDS011;7185;51.854;6.622;2022-12-29T07:29:45;3.28;;;1.30;;
14203;SDS011;7185;51.854;6.622;2022-12-29T07:32:16;3.60;;;1.10;;
14203;SDS011;7185;51.854;6.622;2022-12-29T07:34:48;4.53;;;0.90;;
14203;SDS011;7185;51.854;6.622;2022-12-29T07:37:19;6.30;;;1.05;;
14203;SDS011;7185;51.854;6.622;2022-12-29T07:39:52;4.65;;;0.85;;
14203;SDS011;7185;51.854;6.622;2022-12-29T07:42:24;8.10;;;1.08;;
14203;SDS011;7185;51.854;6.622;2022-12-29T07:44:55;6.53;;;1.08;;
14203;SDS011;7185;51.854;6.622;2022-12-29T07:47:27;2.40;;;0.90;;
14203;SDS011;7185;51.854;6.622;2022-12-29T07:49:59;4.93;;;1.23;;
14203;SDS011;7185;51.854;6.622;2022-12-29T07:52:30;3.17;;;0.95;;
14203;SDS011;7185;51.854;6.622;2022-12-29T07:55:04;5.05;;;1.02;;
14203;SDS011;7185;51.854;6.622;2022-12-29T07:57:36;7.05;;;1.00;;
14203;SDS011;7185;51.854;6.622;2022-12-29T08:00:08;6.35;;;1.25;;
14203;SDS011;7185;51.854;6.622;2022-12-29T08:02:40;6.18;;;1.30;;
14203;SDS011;7185;51.854;6.622;2022-12-29T08:05:12;10.40;;;1.48;;
14203;SDS011;7185;51.854;6.622;2022-12-29T08:07:43;9.98;;;1.50;;
14203;SDS011;7185;51.854;6.622;2022-12-29T08:10:17;4.95;;;0.93;;
14203;SDS011;7185;51.854;6.622;2022-12-29T08:12:49;7.75;;;1.10;;
14203;SDS011;7185;51.854;6.622;2022-12-29T08:15:26;4.80;;;1.27;;
14203;SDS011;7185;51.854;6.622;2022-12-29T08:17:57;10.10;;;1.13;;
14203;SDS011;7185;51.854;6.622;2022-12-29T08:20:29;5.53;;;1.05;;
14203;SDS011;7185;51.854;6.622;2022-12-29T08:23:01;7.93;;;1.23;;
14203;SDS011;7185;51.854;6.622;2022-12-29T08:25:33;3.95;;;1.30;;
14203;SDS011;7185;51.854;6.622;2022-12-29T08:28:05;10.40;;;1.48;;
14203;SDS011;7185;51.854;6.622;2022-12-29T08:30:37;3.80;;;1.00;;
14203;SDS011;7185;51.854;6.622;2022-12-29T08:33:08;8.18;;;1.33;;
14203;SDS011;7185;51.854;6.622;2022-12-29T08:35:40;7.40;;;1.23;;
14203;SDS011;7185;51.854;6.622;2022-12-29T08:38:11;6.25;;;1.02;;
14203;SDS011;7185;51.854;6.622;2022-12-29T08:40:44;4.40;;;1.15;;
14203;SDS011;7185;51.854;6.622;2022-12-29T08:43:16;3.40;;;1.05;;
14203;SDS011;7185;51.854;6.622;2022-12-29T08:45:47;6.53;;;1.35;;
14203;SDS011;7185;51.854;6.622;2022-12-29T08:48:19;8.07;;;1.30;;
14203;SDS011;7185;51.854;6.622;2022-12-29T08:50:52;5.93;;;1.20;;
14203;SDS011;7185;51.854;6.622;2022-12-29T08:53:23;5.30;;;1.23;;
14203;SDS011;7185;51.854;6.622;2022-12-29T08:55:57;7.72;;;1.30;;
14203;SDS011;7185;51.854;6.622;2022-12-29T08:58:30;5.88;;;1.10;;
14203;SDS011;7185;51.854;6.622;2022-12-29T09:01:02;12.57;;;1.77;;
14203;SDS011;7185;51.854;6.622;2022-12-29T09:03:34;5.82;;;1.38;;
14203;SDS011;7185;51.854;6.622;2022-12-29T09:06:05;5.88;;;1.52;;
14203;SDS011;7185;51.854;6.622;2022-12-29T09:08:37;8.48;;;1.70;;
14203;SDS011;7185;51.854;6.622;2022-12-29T09:11:12;7.88;;;1.60;;
14203;SDS011;7185;51.854;6.622;2022-12-29T09:13:45;8.55;;;1.20;;
14203;SDS011;7185;51.854;6.622;2022-12-29T09:16:18;9.70;;;1.30;;
14203;SDS011;7185;51.854;6.622;2022-12-29T09:18:51;6.47;;;1.38;;
14203;SDS011;7185;51.854;6.622;2022-12-29T09:21:23;6.35;;;1.25;;
14203;SDS011;7185;51.854;6.622;2022-12-29T09:23:54;12.38;;;1.33;;
14203;SDS011;7185;51.854;6.622;2022-12-29T09:26:27;6.15;;;1.38;;
14203;SDS011;7185;51.854;6.622;2022-12-29T09:28:59;6.60;;;1.10;;
14203;SDS011;7185;51.854;6.622;2022-12-29T09:31:30;5.55;;;1.38;;
14203;SDS011;7185;51.854;6.622;2022-12-29T09:34:02;6.72;;;1.58;;
14203;SDS011;7185;51.854;6.622;2022-12-29T09:36:33;4.20;;;1.13;;
14203;SDS011;7185;51.854;6.622;2022-12-29T09:39:05;6.20;;;1.13;;
14203;SDS011;7185;51.854;6.622;2022-12-29T09:41:39;6.43;;;1.42;;
14203;SDS011;7185;51.854;6.622;2022-12-29T09:44:19;8.68;;;1.83;;
14203;SDS011;7185;51.854;6.622;2022-12-29T09:46:57;9.20;;;1.30;;
14203;SDS011;7185;51.854;6.622;2022-12-29T09:49:31;10.75;;;1.50;;
14203;SDS011;7185;51.854;6.622;2022-12-29T09:52:13;4.72;;;1.50;;
14203;SDS011;7185;51.854;6.622;2022-12-29T09:54:48;10.70;;;1.80;;
14203;SDS011;7185;51.854;6.622;2022-12-29T09:57:25;7.40;;;1.33;;
14203;SDS011;7185;51.854;6.622;2022-12-29T09:59:59;6.20;;;1.05;;
14203;SDS011;7185;51.854;6.622;2022-12-29T10:02:37;7.93;;;2.08;;
14203;SDS011;7185;51.854;6.622;2022-12-29T10:05:17;6.15;;;1.65;;
14203;SDS011;7185;51.854;6.622;2022-12-29T10:07:57;3.83;;;1.15;;
14203;SDS011;7185;51.854;6.622;2022-12-29T10:10:37;6.57;;;1.35;;
14203;SDS011;7185;51.854;6.622;2022-12-29T10:13:18;7.85;;;1.25;;
14203;SDS011;7185;51.854;6.622;2022-12-29T10:16:07;9.07;;;2.15;;
14203;SDS011;7185;51.854;6.622;2022-12-29T10:21:54;7.78;;;1.30;;
14203;SDS011;7185;51.854;6.622;2022-12-29T10:24:37;7.40;;;1.20;;
14203;SDS011;7185;51.854;6.622;2022-12-29T10:27:11;6.20;;;1.35;;
14203;SDS011;7185;51.854;6.622;2022-12-29T10:29:48;3.65;;;1.25;;
14203;SDS011;7185;51.854;6.622;2022-12-29T10:32:25;5.72;;;1.33;;
14203;SDS011;7185;51.854;6.622;2022-12-29T10:35:03;6.60;;;1.02;;
14203;SDS011;7185;51.854;6.622;2022-12-29T10:37:47;10.75;;;1.20;;
14203;SDS011;7185;51.854;6.622;2022-12-29T10:40:24;6.43;;;1.33;;
14203;SDS011;7185;51.854;6.622;2022-12-29T10:42:59;6.63;;;1.17;;
14203;SDS011;7185;51.854;6.622;2022-12-29T10:45:33;9.13;;;1.52;;
14203;SDS011;7185;51.854;6.622;2022-12-29T10:48:07;5.72;;;1.17;;
14203;SDS011;7185;51.854;6.622;2022-12-29T10:50:43;7.53;;;1.30;;
14203;SDS011;7185;51.854;6.622;2022-12-29T10:53:17;9.38;;;1.55;;
14203;SDS011;7185;51.854;6.622;2022-12-29T10:55:52;7.38;;;1.35;;
14203;SDS011;7185;51.854;6.622;2022-12-29T10:58:26;5.45;;;1.30;;
14203;SDS011;7185;51.854;6.622;2022-12-29T11:01:08;8.35;;;1.65;;
14203;SDS011;7185;51.854;6.622;2022-12-29T11:03:48;9.38;;;1.50;;
14203;SDS011;7185;51.854;6.622;2022-12-29T11:06:30;3.28;;;1.35;;
14203;SDS011;7185;51.854;6.622;2022-12-29T11:09:07;6.97;;;1.75;;
14203;SDS011;7185;51.854;6.622;2022-12-29T11:11:43;3.13;;;0.93;;
14203;SDS011;7185;51.854;6.622;2022-12-29T11:14:17;7.03;;;1.50;;
14203;SDS011;7185;51.854;6.622;2022-12-29T11:16:57;6.63;;;1.30;;
14203;SDS011;7185;51.854;6.622;2022-12-29T11:19:31;9.60;;;1.17;;
14203;SDS011;7185;51.854;6.622;2022-12-29T11:22:12;8.15;;;1.60;;
14203;SDS011;7185;51.854;6.622;2022-12-29T11:24:46;11.25;;;1.90;;
14203;SDS011;7185;51.854;6.622;2022-12-29T11:27:20;7.30;;;1.30;;
14203;SDS011;7185;51.854;6.622;2022-12-29T11:29:53;4.70;;;1.25;;
14203;SDS011;7185;51.854;6.622;2022-12-29T11:32:27;4.57;;;1.35;;
14203;SDS011;7185;51.854;6.622;2022-12-29T11:35:00;5.03;;;1.13;;
14203;SDS011;7185;51.854;6.622;2022-12-29T11:37:36;9.55;;;1.50;;
14203;SDS011;7185;51.854;6.622;2022-12-29T11:40:14;7.47;;;1.15;;
14203;SDS011;7185;51.854;6.622;2022-12-29T11:42:50;4.25;;;1.45;;
14203;SDS011;7185;51.854;6.622;2022-12-29T11:45:24;7.68;;;1.30;;
14203;SDS011;7185;51.854;6.622;2022-12-29T11:47:59;4.75;;;1.63;;
14203;SDS011;7185;51.854;6.622;2022-12-29T11:50:39;7.13;;;1.88;;
14203;SDS011;7185;51.854;6.622;2022-12-29T11:53:14;5.13;;;1.55;;
14203;SDS011;7185;51.854;6.622;2022-12-29T11:55:52;9.52;;;1.60;;
14203;SDS011;7185;51.854;6.622;2022-12-29T11:58:29;7.13;;;1.35;;
14203;SDS011;7185;51.854;6.622;2022-12-29T12:01:03;8.48;;;1.50;;
14203;SDS011;7185;51.854;6.622;2022-12-29T12:03:40;5.38;;;1.08;;
14203;SDS011;7185;51.854;6.622;2022-12-29T12:06:16;5.18;;;1.27;;
14203;SDS011;7185;51.854;6.622;2022-12-29T12:08:55;4.63;;;1.13;;
14203;SDS011;7185;51.854;6.622;2022-12-29T12:11:29;8.35;;;1.25;;
14203;SDS011;7185;51.854;6.622;2022-12-29T12:14:12;5.50;;;1.60;;
14203;SDS011;7185;51.854;6.622;2022-12-29T12:16:50;6.72;;;1.70;;
14203;SDS011;7185;51.854;6.622;2022-12-29T12:19:30;4.05;;;1.23;;
14203;SDS011;7185;51.854;6.622;2022-12-29T12:24:55;7.10;;;1.35;;
14203;SDS011;7185;51.854;6.622;2022-12-29T12:27:33;8.73;;;1.85;;
14203;SDS011;7185;51.854;6.622;2022-12-29T12:30:11;7.10;;;1.48;;
14203;SDS011;7185;51.854;6.622;2022-12-29T12:32:47;7.03;;;1.38;;
14203;SDS011;7185;51.854;6.622;2022-12-29T12:35:26;5.88;;;1.10;;
14203;SDS011;7185;51.854;6.622;2022-12-29T12:38:12;4.88;;;1.15;;
14203;SDS011;7185;51.854;6.622;2022-12-29T12:41:03;9.10;;;1.75;;
14203;SDS011;7185;51.854;6.622;2022-12-29T12:43:41;9.50;;;2.17;;
14203;SDS011;7185;51.854;6.622;2022-12-29T12:46:19;8.90;;;1.63;;
14203;SDS011;7185;51.854;6.622;2022-12-29T12:49:19;7.75;;;1.48;;
14203;SDS011;7185;51.854;6.622;2022-12-29T12:52:08;9.90;;;1.60;;
14203;SDS011;7185;51.854;6.622;2022-12-29T12:54:53;9.25;;;1.80;;
14203;SDS011;7185;51.854;6.622;2022-12-29T12:57:40;7.88;;;1.70;;
14203;SDS011;7185;51.854;6.622;2022-12-29T13:00:20;8.45;;;2.03;;
14203;SDS011;7185;51.854;6.622;2022-12-29T13:02:57;9.40;;;1.73;;
14203;SDS011;7185;51.854;6.622;2022-12-29T13:05:38;3.90;;;1.35;;
14203;SDS011;7185;51.854;6.622;2022-12-29T13:08:30;6.45;;;1.50;;
14203;SDS011;7185;51.854;6.622;2022-12-29T13:11:17;7.32;;;1.63;;
14203;SDS011;7185;51.854;6.622;2022-12-29T13:14:19;6.10;;;1.85;;
14203;SDS011;7185;51.854;6.622;2022-12-29T13:16:59;8.98;;;1.50;;
14203;SDS011;7185;51.854;6.622;2022-12-29T13:19:38;8.75;;;1.42;;
14203;SDS011;7185;51.854;6.622;2022-12-29T13:22:16;5.43;;;1.13;;
14203;SDS011;7185;51.854;6.622;2022-12-29T13:25:00;6.18;;;1.48;;
14203;SDS011;7185;51.854;6.622;2022-12-29T13:27:46;9.02;;;1.63;;
14203;SDS011;7185;51.854;6.622;2022-12-29T13:30:22;8.07;;;1.77;;
14203;SDS011;7185;51.854;6.622;2022-12-29T13:33:00;11.98;;;1.83;;
14203;SDS011;7185;51.854;6.622;2022-12-29T13:35:45;10.02;;;2.00;;
14203;SDS011;7185;51.854;6.622;2022-12-29T13:38:30;10.35;;;1.65;;
14203;SDS011;7185;51.854;6.622;2022-12-29T13:41:08;7.78;;;1.50;;
14203;SDS011;7185;51.854;6.622;2022-12-29T13:43:43;7.70;;;1.48;;
14203;SDS011;7185;51.854;6.622;2022-12-29T13:46:18;8.38;;;1.60;;
14203;SDS011;7185;51.854;6.622;2022-12-29T13:48:53;9.50;;;1.55;;
14203;SDS011;7185;51.854;6.622;2022-12-29T13:51:29;8.00;;;1.80;;
14203;SDS011;7185;51.854;6.622;2022-12-29T13:54:04;10.80;;;2.15;;
14203;SDS011;7185;51.854;6.622;2022-12-29T13:56:48;11.63;;;1.80;;
14203;SDS011;7185;51.854;6.622;2022-12-29T13:59:24;5.55;;;1.52;;
14203;SDS011;7185;51.854;6.622;2022-12-29T14:02:11;5.93;;;1.60;;
14203;SDS011;7185;51.854;6.622;2022-12-29T14:04:56;8.85;;;1.83;;
14203;SDS011;7185;51.854;6.622;2022-12-29T14:07:35;4.47;;;1.40;;
14203;SDS011;7185;51.854;6.622;2022-12-29T14:10:18;6.32;;;1.90;;
14203;SDS011;7185;51.854;6.622;2022-12-29T14:13:06;5.63;;;1.40;;
14203;SDS011;7185;51.854;6.622;2022-12-29T14:15:45;5.18;;;1.35;;
14203;SDS011;7185;51.854;6.622;2022-12-29T14:18:22;6.72;;;1.15;;
14203;SDS011;7185;51.854;6.622;2022-12-29T14:20:56;4.20;;;1.63;;
14203;SDS011;7185;51.854;6.622;2022-12-29T14:23:36;6.80;;;1.40;;
14203;SDS011;7185;51.854;6.622;2022-12-29T14:26:11;5.80;;;1.60;;
14203;SDS011;7185;51.854;6.622;2022-12-29T14:28:46;7.47;;;1.60;;
14203;SDS011;7185;51.854;6.622;2022-12-29T14:31:35;7.63;;;2.17;;
14203;SDS011;7185;51.854;6.622;2022-12-29T14:37:22;6.50;;;1.73;;
14203;SDS011;7185;51.854;6.622;2022-12-29T14:40:04;10.32;;;2.65;;
14203;SDS011;7185;51.854;6.622;2022-12-29T14:42:37;7.88;;;1.42;;
14203;SDS011;7185;51.854;6.622;2022-12-29T14:45:23;10.25;;;2.08;;
14203;SDS011;7185;51.854;6.622;2022-12-29T14:47:58;4.90;;;1.20;;
14203;SDS011;7185;51.854;6.622;2022-12-29T14:50:34;8.52;;;1.45;;
14203;SDS011;7185;51.854;6.622;2022-12-29T14:53:40;8.15;;;1.65;;
14203;SDS011;7185;51.854;6.622;2022-12-29T14:56:16;9.65;;;1.73;;
14203;SDS011;7185;51.854;6.622;2022-12-29T14:58:50;5.70;;;1.42;;
14203;SDS011;7185;51.854;6.622;2022-12-29T15:01:34;8.60;;;2.38;;
14203;SDS011;7185;51.854;6.622;2022-12-29T15:04:15;7.85;;;1.88;;
14203;SDS011;7185;51.854;6.622;2022-12-29T15:06:49;5.97;;;1.50;;
14203;SDS011;7185;51.854;6.622;2022-12-29T15:09:24;6.00;;;1.55;;
14203;SDS011;7185;51.854;6.622;2022-12-29T15:15:18;6.93;;;1.73;;
14203;SDS011;7185;51.854;6.622;2022-12-29T15:17:52;7.45;;;1.90;;
14203;SDS011;7185;51.854;6.622;2022-12-29T15:20:25;8.48;;;1.50;;
14203;SDS011;7185;51.854;6.622;2022-12-29T15:22:58;4.18;;;1.33;;
14203;SDS011;7185;51.854;6.622;2022-12-29T15:25:34;4.67;;;1.73;;
14203;SDS011;7185;51.854;6.622;2022-12-29T15:28:06;4.65;;;2.00;;
14203;SDS011;7185;51.854;6.622;2022-12-29T15:30:51;5.20;;;1.30;;
14203;SDS011;7185;51.854;6.622;2022-12-29T15:33:26;4.72;;;1.20;;
14203;SDS011;7185;51.854;6.622;2022-12-29T15:36:03;7.13;;;1.52;;
14203;SDS011;7185;51.854;6.622;2022-12-29T15:38:41;5.03;;;1.50;;
14203;SDS011;7185;51.854;6.622;2022-12-29T15:41:18;5.38;;;1.27;;
14203;SDS011;7185;51.854;6.622;2022-12-29T15:44:05;5.32;;;1.23;;
14203;SDS011;7185;51.854;6.622;2022-12-29T15:46:51;5.78;;;1.33;;
14203;SDS011;7185;51.854;6.622;2022-12-29T15:49:22;9.13;;;1.52;;
14203;SDS011;7185;51.854;6.622;2022-12-29T15:51:55;5.35;;;1.60;;
14203;SDS011;7185;51.854;6.622;2022-12-29T15:54:27;7.70;;;1.98;;
14203;SDS011;7185;51.854;6.622;2022-12-29T15:57:02;4.93;;;2.10;;
14203;SDS011;7185;51.854;6.622;2022-12-29T15:59:34;6.53;;;1.70;;
14203;SDS011;7185;51.854;6.622;2022-12-29T16:04:55;6.15;;;1.65;;
14203;SDS011;7185;51.854;6.622;2022-12-29T16:07:28;9.05;;;2.25;;
14203;SDS011;7185;51.854;6.622;2022-12-29T16:10:02;17.45;;;2.45;;
14203;SDS011;7185;51.854;6.622;2022-12-29T16:12:35;9.68;;;2.90;;
14203;SDS011;7185;51.854;6.622;2022-12-29T16:15:11;9.73;;;2.88;;